createdAt,value
2016-08-22T00:01:50.890Z,81.6
2016-08-22T00:16:50.884Z,82.38
2016-08-22T00:31:50.885Z,83.18
2016-08-22T00:46:50.944Z,82.08
2016-08-22T01:01:55.927Z,82.66
2016-08-22T01:16:55.478Z,82.12
2016-08-22T01:31:50.897Z,83.18
2016-08-22T01:46:50.959Z,83.55
2016-08-22T02:01:55.961Z,83.77
2016-08-22T02:16:50.914Z,83.66
2016-08-22T02:31:50.956Z,84.13
2016-08-22T02:46:56.016Z,84.24
2016-08-22T03:01:55.871Z,84.27
2016-08-22T03:16:50.929Z,84.57
2016-08-22T03:31:50.940Z,84.45
2016-08-22T03:46:50.949Z,84.42
2016-08-22T04:01:55.945Z,85.1
2016-08-22T04:16:55.156Z,84.92
2016-08-22T04:31:51.017Z,84.5
2016-08-22T04:46:50.962Z,84.83
2016-08-22T05:01:55.591Z,85.27
2016-08-22T05:16:56.004Z,85.16
2016-08-22T05:31:55.589Z,84.86
2016-08-22T05:46:55.537Z,84.93
2016-08-22T06:01:57.606Z,84.02
2016-08-22T06:16:55.560Z,83.53
2016-08-22T06:31:56.039Z,82.51
2016-08-22T06:47:03.990Z,81.9
2016-08-22T07:01:59.332Z,81.17
2016-08-22T07:16:50.973Z,79.22
2016-08-22T07:31:50.976Z,78.67
2016-08-22T07:46:50.973Z,76.31
2016-08-22T08:01:57.083Z,75.04
2016-08-22T08:16:55.948Z,74.19
2016-08-22T08:31:56.026Z,72.11
2016-08-22T08:46:50.987Z,71.58
2016-08-22T09:01:50.988Z,68.96
2016-08-22T09:16:51.012Z,69.5
2016-08-22T09:31:56.059Z,69.89
2016-08-22T09:46:55.938Z,69.9
2016-08-22T10:01:56.025Z,68.57
2016-08-22T10:16:50.996Z,69.22
2016-08-22T10:31:50.995Z,67.61
2016-08-22T10:46:51.056Z,66.81
2016-08-22T11:02:01.330Z,67.56
2016-08-22T11:16:56.051Z,66.27
2016-08-22T11:31:55.941Z,65.26
2016-08-22T11:46:51.070Z,64.74
2016-08-22T12:01:51.005Z,65.29
2016-08-22T12:16:57.604Z,63.94
2016-08-22T12:31:51.002Z,63.38
2016-08-22T12:46:51.041Z,65.01
2016-08-22T13:01:51.000Z,64.91
2016-08-22T13:17:07.646Z,67.43
2016-08-22T13:31:51.017Z,69.67
2016-08-22T13:46:51.044Z,70.68
2016-08-22T14:01:51.020Z,70.93
2016-08-22T14:16:51.039Z,72.4
2016-08-22T14:31:53.030Z,74.26
2016-08-22T14:46:51.057Z,74.36
2016-08-22T15:01:55.636Z,74
2016-08-22T15:16:51.036Z,74.5
2016-08-22T15:31:51.041Z,75.75
2016-08-22T15:46:56.026Z,76.6
2016-08-22T16:01:53.046Z,78.92
2016-08-22T16:16:51.052Z,79.34
2016-08-22T16:31:51.037Z,80.3
2016-08-22T16:46:51.034Z,81.5
2016-08-22T17:01:55.205Z,84.41
2016-08-22T17:16:53.056Z,84.73
2016-08-22T17:31:55.675Z,84.74
2016-08-22T17:46:51.061Z,86.53
2016-08-22T18:46:54.092Z,86.92
2016-08-22T19:01:55.713Z,87.05
2016-08-22T19:16:55.696Z,88.29
2016-08-22T19:32:02.484Z,88.35
2016-08-22T19:46:59.407Z,88.31
2016-08-22T20:01:55.391Z,88.24
2016-08-22T20:16:51.921Z,88.26
2016-08-22T20:31:57.455Z,88.03
2016-08-22T20:46:56.063Z,87.66
2016-08-22T21:01:57.685Z,87.79
2016-08-22T21:16:56.169Z,87.55
2016-08-22T21:31:51.078Z,87.65
2016-08-22T21:46:57.728Z,88.05
2016-08-22T22:01:51.094Z,88.01
2016-08-22T22:16:57.702Z,88.14
2016-08-22T22:31:56.024Z,88.04
2016-08-22T22:46:51.083Z,88.2
2016-08-22T23:01:56.224Z,87.59
2016-08-22T23:16:57.684Z,87.67
2016-08-22T23:31:57.685Z,87.57
2016-08-22T23:46:51.096Z,87.88
